Logo Frankfurt-Egelsbach Airport
Hessische Flugplatz GmbH Egelsbach
Telefon : +49 (0)6103-9418-0
E-Mail : fly@egelsbach-airport.com
   

 

 

 

 

 

 

Aktuelle Daten

Öffnungszeiten: 0800 LT - SS+30 (max 2100 LT)

PPR: 0700 LT - 0800 LT, SS+30 - 2100 LT Tel +49 6103 9418-0

Beschränkung für NVFR-Anflüge mit HPA aufgehoben.

Behördlich vorgeschriebenes Briefing für NVFR-Anflüge mit HPA

» Behördlich vorgeschriebenes Briefing für NVFR-Anflüge mit HPA

Videos Streckenführung

 

Webcam

Webcam

Wetterdaten

Beobachtung von : 31-AUG-2014 - 00:21 UTC
Sonnenaufgang : 04:39 UTC
Sonnenuntergang : 18:13 UTC
Sicht : ausgefallen
Wolkenuntergrenze : nicht feststellbar
Wind : 300 / 4 kt
Wind extrem (10 min) : 230-310 / 1-6 kt
Temperatur : 16.4° Celsius
Taupunkt : 14.7° Celsius
QNH : 1016.1 hPa
Dichtehöhe : 570 ft

Daten werden automatisch generiert. Verfügbarkeit und Richtigkeit ohne Gewähr.
Mit freundlicher Unterstützung des Deutschen Wetterdienstes

Metar

906
SADL31 EDFE 301850
METAR EDFE 301850Z 25001KT 9999 SCT045 BKN050 17/14 Q1017=


Notam

E2142/14 - EGELSBACH NDB EH 386 NOT FLIGHT CHECKED. DO NOT USE. DISREGARD ALL SIGNALS. 06 AUG 08:07 2014 UNTIL 04 NOV 08:07 2014 ESTIMATED.